sensor_id;sensor_type;location;lat;lon;timestamp;P1;durP1;ratioP1;P2;durP2;ratioP2
2546;SDS011;1283;47.982;7.834;2023-05-07T00:00:06;3.88;;;2.50;;
2546;SDS011;1283;47.982;7.834;2023-05-07T00:02:33;10.48;;;2.33;;
2546;SDS011;1283;47.982;7.834;2023-05-07T00:05:00;8.13;;;2.20;;
2546;SDS011;1283;47.982;7.834;2023-05-07T00:07:27;5.05;;;2.00;;
2546;SDS011;1283;47.982;7.834;2023-05-07T00:09:54;7.53;;;2.10;;
2546;SDS011;1283;47.982;7.834;2023-05-07T00:12:20;4.90;;;3.05;;
2546;SDS011;1283;47.982;7.834;2023-05-07T00:14:48;3.65;;;2.10;;
2546;SDS011;1283;47.982;7.834;2023-05-07T00:17:14;5.88;;;2.35;;
2546;SDS011;1283;47.982;7.834;2023-05-07T00:19:41;5.30;;;2.80;;
2546;SDS011;1283;47.982;7.834;2023-05-07T00:22:07;4.38;;;2.50;;
2546;SDS011;1283;47.982;7.834;2023-05-07T00:24:34;4.30;;;2.45;;
2546;SDS011;1283;47.982;7.834;2023-05-07T00:27:00;8.43;;;2.40;;
2546;SDS011;1283;47.982;7.834;2023-05-07T00:29:27;6.18;;;2.38;;
2546;SDS011;1283;47.982;7.834;2023-05-07T00:31:54;4.07;;;2.50;;
2546;SDS011;1283;47.982;7.834;2023-05-07T00:34:21;2.38;;;2.13;;
2546;SDS011;1283;47.982;7.834;2023-05-07T00:36:47;10.77;;;2.40;;
2546;SDS011;1283;47.982;7.834;2023-05-07T00:39:14;12.13;;;2.75;;
2546;SDS011;1283;47.982;7.834;2023-05-07T00:41:40;4.95;;;2.42;;
2546;SDS011;1283;47.982;7.834;2023-05-07T00:44:07;3.65;;;2.40;;
2546;SDS011;1283;47.982;7.834;2023-05-07T00:46:33;6.90;;;2.50;;
2546;SDS011;1283;47.982;7.834;2023-05-07T00:49:01;6.70;;;2.30;;
2546;SDS011;1283;47.982;7.834;2023-05-07T00:51:28;3.83;;;2.60;;
2546;SDS011;1283;47.982;7.834;2023-05-07T00:53:55;7.18;;;2.20;;
2546;SDS011;1283;47.982;7.834;2023-05-07T00:56:22;3.95;;;2.10;;
2546;SDS011;1283;47.982;7.834;2023-05-07T00:58:48;11.20;;;2.20;;
2546;SDS011;1283;47.982;7.834;2023-05-07T01:01:15;4.13;;;2.00;;
2546;SDS011;1283;47.982;7.834;2023-05-07T01:03:41;5.93;;;2.45;;
2546;SDS011;1283;47.982;7.834;2023-05-07T01:06:09;3.10;;;2.28;;
2546;SDS011;1283;47.982;7.834;2023-05-07T01:08:37;5.10;;;1.90;;
2546;SDS011;1283;47.982;7.834;2023-05-07T01:11:04;5.45;;;2.40;;
2546;SDS011;1283;47.982;7.834;2023-05-07T01:13:31;2.05;;;1.65;;
2546;SDS011;1283;47.982;7.834;2023-05-07T01:15:57;3.80;;;1.80;;
2546;SDS011;1283;47.982;7.834;2023-05-07T01:18:24;5.32;;;2.25;;
2546;SDS011;1283;47.982;7.834;2023-05-07T01:20:51;6.57;;;2.03;;
2546;SDS011;1283;47.982;7.834;2023-05-07T01:23:19;4.13;;;2.17;;
2546;SDS011;1283;47.982;7.834;2023-05-07T01:25:50;6.30;;;2.58;;
2546;SDS011;1283;47.982;7.834;2023-05-07T01:28:17;2.90;;;2.20;;
2546;SDS011;1283;47.982;7.834;2023-05-07T01:30:44;3.08;;;2.10;;
2546;SDS011;1283;47.982;7.834;2023-05-07T01:33:13;4.95;;;2.20;;
2546;SDS011;1283;47.982;7.834;2023-05-07T01:35:41;2.72;;;2.30;;
2546;SDS011;1283;47.982;7.834;2023-05-07T01:38:11;4.00;;;2.55;;
2546;SDS011;1283;47.982;7.834;2023-05-07T01:40:39;4.72;;;2.05;;
2546;SDS011;1283;47.982;7.834;2023-05-07T01:43:06;6.80;;;2.10;;
2546;SDS011;1283;47.982;7.834;2023-05-07T01:45:32;6.10;;;2.13;;
2546;SDS011;1283;47.982;7.834;2023-05-07T01:48:00;5.05;;;2.22;;
2546;SDS011;1283;47.982;7.834;2023-05-07T01:50:27;4.07;;;2.40;;
2546;SDS011;1283;47.982;7.834;2023-05-07T01:52:53;4.43;;;2.05;;
2546;SDS011;1283;47.982;7.834;2023-05-07T01:55:20;9.57;;;2.70;;
2546;SDS011;1283;47.982;7.834;2023-05-07T01:57:48;6.53;;;2.95;;
2546;SDS011;1283;47.982;7.834;2023-05-07T02:00:14;5.18;;;2.28;;
2546;SDS011;1283;47.982;7.834;2023-05-07T02:02:42;3.75;;;2.05;;
2546;SDS011;1283;47.982;7.834;2023-05-07T02:05:09;2.92;;;2.25;;
2546;SDS011;1283;47.982;7.834;2023-05-07T02:07:35;11.65;;;2.30;;
2546;SDS011;1283;47.982;7.834;2023-05-07T02:10:01;3.10;;;2.00;;
2546;SDS011;1283;47.982;7.834;2023-05-07T02:12:28;4.78;;;2.35;;
2546;SDS011;1283;47.982;7.834;2023-05-07T02:14:56;8.57;;;2.60;;
2546;SDS011;1283;47.982;7.834;2023-05-07T02:17:23;5.93;;;2.92;;
2546;SDS011;1283;47.982;7.834;2023-05-07T02:19:50;3.60;;;2.42;;
2546;SDS011;1283;47.982;7.834;2023-05-07T02:22:16;2.80;;;2.40;;
2546;SDS011;1283;47.982;7.834;2023-05-07T02:24:43;7.85;;;2.58;;
2546;SDS011;1283;47.982;7.834;2023-05-07T02:27:10;3.65;;;2.45;;
2546;SDS011;1283;47.982;7.834;2023-05-07T02:29:36;6.78;;;2.42;;
2546;SDS011;1283;47.982;7.834;2023-05-07T02:32:04;3.90;;;2.50;;
2546;SDS011;1283;47.982;7.834;2023-05-07T02:34:31;7.80;;;2.78;;
2546;SDS011;1283;47.982;7.834;2023-05-07T02:36:57;5.40;;;2.90;;
2546;SDS011;1283;47.982;7.834;2023-05-07T02:39:24;4.82;;;2.70;;
2546;SDS011;1283;47.982;7.834;2023-05-07T02:41:50;3.80;;;2.65;;
2546;SDS011;1283;47.982;7.834;2023-05-07T02:44:17;7.30;;;2.55;;
2546;SDS011;1283;47.982;7.834;2023-05-07T02:46:43;5.30;;;2.72;;
2546;SDS011;1283;47.982;7.834;2023-05-07T02:49:11;5.82;;;2.67;;
2546;SDS011;1283;47.982;7.834;2023-05-07T02:51:37;7.25;;;2.83;;
2546;SDS011;1283;47.982;7.834;2023-05-07T02:54:04;4.53;;;2.38;;
2546;SDS011;1283;47.982;7.834;2023-05-07T02:56:30;4.72;;;2.60;;
2546;SDS011;1283;47.982;7.834;2023-05-07T02:58:57;6.07;;;2.72;;
2546;SDS011;1283;47.982;7.834;2023-05-07T03:01:23;10.30;;;3.83;;
2546;SDS011;1283;47.982;7.834;2023-05-07T03:03:50;3.40;;;2.45;;
2546;SDS011;1283;47.982;7.834;2023-05-07T03:06:17;4.75;;;2.25;;
2546;SDS011;1283;47.982;7.834;2023-05-07T03:08:44;3.45;;;2.33;;
2546;SDS011;1283;47.982;7.834;2023-05-07T03:11:10;3.83;;;2.20;;
2546;SDS011;1283;47.982;7.834;2023-05-07T03:13:37;5.40;;;2.20;;
2546;SDS011;1283;47.982;7.834;2023-05-07T03:16:03;5.65;;;2.63;;
2546;SDS011;1283;47.982;7.834;2023-05-07T03:18:30;6.70;;;2.33;;
2546;SDS011;1283;47.982;7.834;2023-05-07T03:20:56;5.60;;;2.72;;
2546;SDS011;1283;47.982;7.834;2023-05-07T03:23:24;3.10;;;2.53;;
2546;SDS011;1283;47.982;7.834;2023-05-07T03:25:51;4.95;;;2.58;;
2546;SDS011;1283;47.982;7.834;2023-05-07T03:28:17;10.60;;;2.80;;
2546;SDS011;1283;47.982;7.834;2023-05-07T03:30:43;5.00;;;2.80;;
2546;SDS011;1283;47.982;7.834;2023-05-07T03:33:10;6.93;;;2.92;;
2546;SDS011;1283;47.982;7.834;2023-05-07T03:35:36;3.88;;;2.85;;
2546;SDS011;1283;47.982;7.834;2023-05-07T03:38:03;5.75;;;2.72;;
2546;SDS011;1283;47.982;7.834;2023-05-07T03:40:31;4.15;;;2.53;;
2546;SDS011;1283;47.982;7.834;2023-05-07T03:42:57;6.18;;;3.97;;
2546;SDS011;1283;47.982;7.834;2023-05-07T03:45:24;4.00;;;2.67;;
2546;SDS011;1283;47.982;7.834;2023-05-07T03:47:50;6.75;;;2.83;;
2546;SDS011;1283;47.982;7.834;2023-05-07T03:50:17;3.25;;;2.60;;
2546;SDS011;1283;47.982;7.834;2023-05-07T03:52:43;6.05;;;3.30;;
2546;SDS011;1283;47.982;7.834;2023-05-07T03:55:10;7.03;;;3.33;;
2546;SDS011;1283;47.982;7.834;2023-05-07T03:57:38;5.68;;;3.03;;
2546;SDS011;1283;47.982;7.834;2023-05-07T04:00:05;5.80;;;2.67;;
2546;SDS011;1283;47.982;7.834;2023-05-07T04:02:33;9.95;;;3.00;;
2546;SDS011;1283;47.982;7.834;2023-05-07T04:04:59;4.93;;;2.85;;
2546;SDS011;1283;47.982;7.834;2023-05-07T04:07:26;4.40;;;3.10;;
2546;SDS011;1283;47.982;7.834;2023-05-07T04:09:52;7.10;;;3.35;;
2546;SDS011;1283;47.982;7.834;2023-05-07T04:12:19;5.30;;;3.78;;
2546;SDS011;1283;47.982;7.834;2023-05-07T04:14:46;5.75;;;3.42;;
2546;SDS011;1283;47.982;7.834;2023-05-07T04:17:13;4.05;;;2.97;;
2546;SDS011;1283;47.982;7.834;2023-05-07T04:19:39;12.38;;;3.53;;
2546;SDS011;1283;47.982;7.834;2023-05-07T04:22:10;5.32;;;2.90;;
2546;SDS011;1283;47.982;7.834;2023-05-07T04:24:36;7.20;;;3.17;;
2546;SDS011;1283;47.982;7.834;2023-05-07T04:27:03;3.88;;;2.78;;
2546;SDS011;1283;47.982;7.834;2023-05-07T04:29:29;9.82;;;3.22;;
2546;SDS011;1283;47.982;7.834;2023-05-07T04:31:57;4.78;;;3.30;;
2546;SDS011;1283;47.982;7.834;2023-05-07T04:34:24;3.78;;;3.03;;
2546;SDS011;1283;47.982;7.834;2023-05-07T04:36:50;9.30;;;3.70;;
2546;SDS011;1283;47.982;7.834;2023-05-07T04:39:16;4.85;;;3.15;;
2546;SDS011;1283;47.982;7.834;2023-05-07T04:41:43;6.78;;;2.90;;
2546;SDS011;1283;47.982;7.834;2023-05-07T04:44:09;6.72;;;3.20;;
2546;SDS011;1283;47.982;7.834;2023-05-07T04:46:36;8.90;;;2.55;;
2546;SDS011;1283;47.982;7.834;2023-05-07T04:49:04;4.95;;;3.30;;
2546;SDS011;1283;47.982;7.834;2023-05-07T04:51:30;3.92;;;2.33;;
2546;SDS011;1283;47.982;7.834;2023-05-07T04:53:57;3.63;;;2.50;;
2546;SDS011;1283;47.982;7.834;2023-05-07T04:56:24;2.97;;;2.22;;
2546;SDS011;1283;47.982;7.834;2023-05-07T04:58:50;3.65;;;2.53;;
2546;SDS011;1283;47.982;7.834;2023-05-07T05:01:16;5.50;;;2.97;;
2546;SDS011;1283;47.982;7.834;2023-05-07T05:03:43;4.65;;;2.42;;
2546;SDS011;1283;47.982;7.834;2023-05-07T05:06:11;4.00;;;2.30;;
2546;SDS011;1283;47.982;7.834;2023-05-07T05:08:37;6.03;;;2.30;;
2546;SDS011;1283;47.982;7.834;2023-05-07T05:11:04;4.43;;;2.35;;
2546;SDS011;1283;47.982;7.834;2023-05-07T05:13:30;7.10;;;2.38;;
2546;SDS011;1283;47.982;7.834;2023-05-07T05:15:57;4.57;;;2.63;;
2546;SDS011;1283;47.982;7.834;2023-05-07T05:18:23;3.17;;;2.05;;
2546;SDS011;1283;47.982;7.834;2023-05-07T05:20:50;5.40;;;2.70;;
2546;SDS011;1283;47.982;7.834;2023-05-07T05:23:18;5.43;;;1.92;;
2546;SDS011;1283;47.982;7.834;2023-05-07T05:25:45;3.25;;;2.33;;
2546;SDS011;1283;47.982;7.834;2023-05-07T05:28:11;5.22;;;2.15;;
2546;SDS011;1283;47.982;7.834;2023-05-07T05:30:38;4.90;;;2.13;;
2546;SDS011;1283;47.982;7.834;2023-05-07T05:33:05;2.53;;;2.00;;
2546;SDS011;1283;47.982;7.834;2023-05-07T05:35:31;5.95;;;2.30;;
2546;SDS011;1283;47.982;7.834;2023-05-07T05:37:58;3.38;;;2.38;;
2546;SDS011;1283;47.982;7.834;2023-05-07T05:40:25;4.28;;;2.10;;
2546;SDS011;1283;47.982;7.834;2023-05-07T05:42:52;6.22;;;1.88;;
2546;SDS011;1283;47.982;7.834;2023-05-07T05:45:18;8.02;;;2.25;;
2546;SDS011;1283;47.982;7.834;2023-05-07T05:47:45;3.42;;;1.70;;
2546;SDS011;1283;47.982;7.834;2023-05-07T05:50:11;4.38;;;2.38;;
2546;SDS011;1283;47.982;7.834;2023-05-07T05:52:37;6.15;;;2.03;;
2546;SDS011;1283;47.982;7.834;2023-05-07T05:55:06;6.28;;;2.38;;
2546;SDS011;1283;47.982;7.834;2023-05-07T05:57:34;3.20;;;2.42;;
2546;SDS011;1283;47.982;7.834;2023-05-07T06:00:01;5.75;;;2.53;;
2546;SDS011;1283;47.982;7.834;2023-05-07T06:02:28;4.45;;;2.40;;
2546;SDS011;1283;47.982;7.834;2023-05-07T06:04:54;10.23;;;2.88;;
2546;SDS011;1283;47.982;7.834;2023-05-07T06:07:21;7.57;;;3.20;;
2546;SDS011;1283;47.982;7.834;2023-05-07T06:09:47;4.80;;;3.28;;
2546;SDS011;1283;47.982;7.834;2023-05-07T06:12:14;5.18;;;3.05;;
2546;SDS011;1283;47.982;7.834;2023-05-07T06:14:43;7.07;;;2.90;;
2546;SDS011;1283;47.982;7.834;2023-05-07T06:17:10;7.05;;;2.53;;
2546;SDS011;1283;47.982;7.834;2023-05-07T06:19:36;4.18;;;2.60;;
2546;SDS011;1283;47.982;7.834;2023-05-07T06:22:02;4.97;;;2.83;;
2546;SDS011;1283;47.982;7.834;2023-05-07T06:24:29;4.93;;;2.65;;
2546;SDS011;1283;47.982;7.834;2023-05-07T06:26:55;10.25;;;3.05;;
2546;SDS011;1283;47.982;7.834;2023-05-07T06:29:23;5.72;;;3.15;;
2546;SDS011;1283;47.982;7.834;2023-05-07T06:31:52;4.35;;;2.97;;
2546;SDS011;1283;47.982;7.834;2023-05-07T06:34:18;4.35;;;3.00;;
2546;SDS011;1283;47.982;7.834;2023-05-07T06:36:44;8.60;;;3.33;;
2546;SDS011;1283;47.982;7.834;2023-05-07T06:39:11;6.25;;;2.80;;
2546;SDS011;1283;47.982;7.834;2023-05-07T06:41:37;8.55;;;4.75;;
2546;SDS011;1283;47.982;7.834;2023-05-07T06:44:04;8.57;;;3.25;;
2546;SDS011;1283;47.982;7.834;2023-05-07T06:46:30;6.47;;;2.80;;
2546;SDS011;1283;47.982;7.834;2023-05-07T06:48:58;7.68;;;3.03;;
2546;SDS011;1283;47.982;7.834;2023-05-07T06:51:25;6.32;;;3.13;;
2546;SDS011;1283;47.982;7.834;2023-05-07T06:53:51;7.30;;;3.30;;
2546;SDS011;1283;47.982;7.834;2023-05-07T06:56:18;4.68;;;2.80;;
2546;SDS011;1283;47.982;7.834;2023-05-07T06:58:45;5.43;;;3.13;;
2546;SDS011;1283;47.982;7.834;2023-05-07T07:01:11;5.00;;;3.00;;
2546;SDS011;1283;47.982;7.834;2023-05-07T07:03:37;5.18;;;2.72;;
2546;SDS011;1283;47.982;7.834;2023-05-07T07:06:05;8.00;;;3.38;;
2546;SDS011;1283;47.982;7.834;2023-05-07T07:08:32;3.63;;;2.75;;
2546;SDS011;1283;47.982;7.834;2023-05-07T07:10:59;3.28;;;2.72;;
2546;SDS011;1283;47.982;7.834;2023-05-07T07:13:25;9.38;;;2.95;;
2546;SDS011;1283;47.982;7.834;2023-05-07T07:15:52;8.50;;;3.55;;
2546;SDS011;1283;47.982;7.834;2023-05-07T07:18:18;5.20;;;2.78;;
2546;SDS011;1283;47.982;7.834;2023-05-07T07:20:45;7.78;;;3.33;;
2546;SDS011;1283;47.982;7.834;2023-05-07T07:23:13;3.38;;;2.80;;
2546;SDS011;1283;47.982;7.834;2023-05-07T07:25:39;7.00;;;3.08;;
2546;SDS011;1283;47.982;7.834;2023-05-07T07:28:06;13.80;;;2.92;;
2546;SDS011;1283;47.982;7.834;2023-05-07T07:30:32;6.25;;;3.13;;
2546;SDS011;1283;47.982;7.834;2023-05-07T07:32:59;8.95;;;3.00;;
2546;SDS011;1283;47.982;7.834;2023-05-07T07:35:27;8.35;;;3.35;;
2546;SDS011;1283;47.982;7.834;2023-05-07T07:37:54;6.95;;;3.03;;
2546;SDS011;1283;47.982;7.834;2023-05-07T07:40:21;4.80;;;3.15;;
2546;SDS011;1283;47.982;7.834;2023-05-07T07:42:48;6.70;;;3.70;;
2546;SDS011;1283;47.982;7.834;2023-05-07T07:45:14;7.93;;;3.88;;
2546;SDS011;1283;47.982;7.834;2023-05-07T07:47:41;5.68;;;3.33;;
2546;SDS011;1283;47.982;7.834;2023-05-07T07:50:07;6.82;;;3.40;;
2546;SDS011;1283;47.982;7.834;2023-05-07T07:52:35;7.45;;;3.28;;
2546;SDS011;1283;47.982;7.834;2023-05-07T07:55:01;10.63;;;3.22;;
2546;SDS011;1283;47.982;7.834;2023-05-07T07:57:29;8.65;;;3.15;;
2546;SDS011;1283;47.982;7.834;2023-05-07T07:59:56;7.40;;;3.28;;
2546;SDS011;1283;47.982;7.834;2023-05-07T08:02:22;5.25;;;3.00;;
2546;SDS011;1283;47.982;7.834;2023-05-07T08:04:49;7.75;;;3.22;;
2546;SDS011;1283;47.982;7.834;2023-05-07T08:07:15;7.97;;;3.55;;
2546;SDS011;1283;47.982;7.834;2023-05-07T08:09:43;8.18;;;3.63;;
2546;SDS011;1283;47.982;7.834;2023-05-07T08:12:10;8.32;;;3.25;;
2546;SDS011;1283;47.982;7.834;2023-05-07T08:14:38;5.88;;;2.92;;
2546;SDS011;1283;47.982;7.834;2023-05-07T08:17:04;7.85;;;3.35;;
2546;SDS011;1283;47.982;7.834;2023-05-07T08:19:31;6.22;;;3.03;;
2546;SDS011;1283;47.982;7.834;2023-05-07T08:21:57;3.58;;;2.70;;
2546;SDS011;1283;47.982;7.834;2023-05-07T08:24:24;9.57;;;3.28;;
2546;SDS011;1283;47.982;7.834;2023-05-07T08:26:50;4.68;;;3.47;;
2546;SDS011;1283;47.982;7.834;2023-05-07T08:29:17;6.82;;;2.80;;
2546;SDS011;1283;47.982;7.834;2023-05-07T08:31:45;7.45;;;3.00;;
2546;SDS011;1283;47.982;7.834;2023-05-07T08:34:11;8.93;;;3.20;;
2546;SDS011;1283;47.982;7.834;2023-05-07T08:36:38;5.00;;;2.70;;
2546;SDS011;1283;47.982;7.834;2023-05-07T08:39:06;4.68;;;2.65;;
2546;SDS011;1283;47.982;7.834;2023-05-07T08:41:34;6.30;;;3.20;;
2546;SDS011;1283;47.982;7.834;2023-05-07T08:44:01;6.40;;;2.83;;
2546;SDS011;1283;47.982;7.834;2023-05-07T08:46:31;6.72;;;3.00;;
2546;SDS011;1283;47.982;7.834;2023-05-07T08:48:59;5.95;;;2.75;;
2546;SDS011;1283;47.982;7.834;2023-05-07T08:51:25;7.20;;;3.63;;
2546;SDS011;1283;47.982;7.834;2023-05-07T08:53:52;4.57;;;3.10;;
2546;SDS011;1283;47.982;7.834;2023-05-07T08:56:19;12.43;;;3.85;;
2546;SDS011;1283;47.982;7.834;2023-05-07T08:58:47;6.70;;;3.38;;
2546;SDS011;1283;47.982;7.834;2023-05-07T09:01:14;8.45;;;3.78;;
2546;SDS011;1283;47.982;7.834;2023-05-07T09:03:42;8.15;;;3.70;;
2546;SDS011;1283;47.982;7.834;2023-05-07T09:06:11;6.72;;;4.35;;
2546;SDS011;1283;47.982;7.834;2023-05-07T09:08:38;6.25;;;3.80;;
2546;SDS011;1283;47.982;7.834;2023-05-07T09:11:04;7.63;;;3.70;;
2546;SDS011;1283;47.982;7.834;2023-05-07T09:13:31;7.90;;;4.28;;
2546;SDS011;1283;47.982;7.834;2023-05-07T09:15:57;8.52;;;4.63;;
2546;SDS011;1283;47.982;7.834;2023-05-07T09:18:24;9.60;;;4.18;;
2546;SDS011;1283;47.982;7.834;2023-05-07T09:20:51;8.05;;;3.67;;
2546;SDS011;1283;47.982;7.834;2023-05-07T09:23:18;7.50;;;3.55;;
2546;SDS011;1283;47.982;7.834;2023-05-07T09:25:46;4.47;;;2.80;;
2546;SDS011;1283;47.982;7.834;2023-05-07T09:28:13;6.60;;;3.40;;
2546;SDS011;1283;47.982;7.834;2023-05-07T09:30:39;7.25;;;2.80;;
2546;SDS011;1283;47.982;7.834;2023-05-07T09:33:05;5.95;;;3.13;;
2546;SDS011;1283;47.982;7.834;2023-05-07T09:35:32;7.43;;;2.55;;
2546;SDS011;1283;47.982;7.834;2023-05-07T09:37:59;4.32;;;2.50;;
2546;SDS011;1283;47.982;7.834;2023-05-07T09:40:28;4.70;;;2.80;;
2546;SDS011;1283;47.982;7.834;2023-05-07T09:42:55;11.45;;;3.15;;
2546;SDS011;1283;47.982;7.834;2023-05-07T09:45:22;6.28;;;3.20;;
2546;SDS011;1283;47.982;7.834;2023-05-07T09:47:49;11.77;;;3.28;;
2546;SDS011;1283;47.982;7.834;2023-05-07T09:50:20;3.83;;;2.78;;
2546;SDS011;1283;47.982;7.834;2023-05-07T09:52:48;8.23;;;3.13;;
2546;SDS011;1283;47.982;7.834;2023-05-07T09:55:15;5.13;;;3.20;;
2546;SDS011;1283;47.982;7.834;2023-05-07T09:57:43;6.55;;;3.30;;
2546;SDS011;1283;47.982;7.834;2023-05-07T10:00:10;7.53;;;3.42;;
2546;SDS011;1283;47.982;7.834;2023-05-07T10:02:38;6.57;;;3.05;;
2546;SDS011;1283;47.982;7.834;2023-05-07T10:05:11;5.03;;;3.10;;
2546;SDS011;1283;47.982;7.834;2023-05-07T10:07:38;6.30;;;2.97;;
2546;SDS011;1283;47.982;7.834;2023-05-07T10:10:06;4.68;;;3.25;;
2546;SDS011;1283;47.982;7.834;2023-05-07T10:12:33;5.47;;;2.75;;
2546;SDS011;1283;47.982;7.834;2023-05-07T10:15:05;5.50;;;3.60;;
2546;SDS011;1283;47.982;7.834;2023-05-07T10:17:33;7.85;;;3.03;;
2546;SDS011;1283;47.982;7.834;2023-05-07T10:20:01;6.47;;;3.58;;
2546;SDS011;1283;47.982;7.834;2023-05-07T10:22:29;5.25;;;2.85;;
2546;SDS011;1283;47.982;7.834;2023-05-07T10:24:56;9.18;;;3.42;;
2546;SDS011;1283;47.982;7.834;2023-05-07T10:27:25;7.18;;;3.33;;
2546;SDS011;1283;47.982;7.834;2023-05-07T10:29:53;11.57;;;3.92;;
2546;SDS011;1283;47.982;7.834;2023-05-07T10:32:30;7.70;;;3.55;;
2546;SDS011;1283;47.982;7.834;2023-05-07T10:35:02;6.88;;;3.97;;
2546;SDS011;1283;47.982;7.834;2023-05-07T10:37:31;8.07;;;4.43;;
2546;SDS011;1283;47.982;7.834;2023-05-07T10:39:57;8.10;;;4.97;;
2546;SDS011;1283;47.982;7.834;2023-05-07T10:42:24;6.15;;;3.53;;
2546;SDS011;1283;47.982;7.834;2023-05-07T10:44:51;6.75;;;3.95;;
2546;SDS011;1283;47.982;7.834;2023-05-07T10:47:17;6.35;;;3.78;;
2546;SDS011;1283;47.982;7.834;2023-05-07T11:04:34;5.80;;;3.60;;
2546;SDS011;1283;47.982;7.834;2023-05-07T11:09:56;7.25;;;3.90;;
2546;SDS011;1283;47.982;7.834;2023-05-07T11:12:50;7.35;;;3.60;;
2546;SDS011;1283;47.982;7.834;2023-05-07T11:15:40;6.38;;;3.25;;
2546;SDS011;1283;47.982;7.834;2023-05-07T11:20:50;4.95;;;3.30;;
2546;SDS011;1283;47.982;7.834;2023-05-07T11:26:26;5.30;;;3.10;;
2546;SDS011;1283;47.982;7.834;2023-05-07T11:28:53;4.00;;;2.80;;
2546;SDS011;1283;47.982;7.834;2023-05-07T11:31:21;4.43;;;2.95;;
2546;SDS011;1283;47.982;7.834;2023-05-07T11:33:48;3.05;;;2.75;;
2546;SDS011;1283;47.982;7.834;2023-05-07T11:36:15;6.80;;;3.10;;
2546;SDS011;1283;47.982;7.834;2023-05-07T11:38:41;4.72;;;2.92;;
2546;SDS011;1283;47.982;7.834;2023-05-07T11:41:08;5.70;;;3.15;;
2546;SDS011;1283;47.982;7.834;2023-05-07T11:43:36;5.22;;;3.10;;
2546;SDS011;1283;47.982;7.834;2023-05-07T11:46:05;5.15;;;2.90;;
2546;SDS011;1283;47.982;7.834;2023-05-07T11:48:33;4.10;;;2.60;;
2546;SDS011;1283;47.982;7.834;2023-05-07T11:51:00;5.85;;;3.13;;
2546;SDS011;1283;47.982;7.834;2023-05-07T11:53:27;8.32;;;3.50;;
2546;SDS011;1283;47.982;7.834;2023-05-07T11:55:54;4.35;;;2.83;;
2546;SDS011;1283;47.982;7.834;2023-05-07T11:58:22;5.80;;;3.45;;
2546;SDS011;1283;47.982;7.834;2023-05-07T12:00:52;4.60;;;3.17;;
2546;SDS011;1283;47.982;7.834;2023-05-07T12:03:19;5.85;;;3.60;;
2546;SDS011;1283;47.982;7.834;2023-05-07T12:05:45;6.32;;;3.20;;
2546;SDS011;1283;47.982;7.834;2023-05-07T12:08:13;8.73;;;3.53;;
2546;SDS011;1283;47.982;7.834;2023-05-07T12:10:40;5.25;;;3.67;;
2546;SDS011;1283;47.982;7.834;2023-05-07T12:13:13;6.05;;;3.35;;
2546;SDS011;1283;47.982;7.834;2023-05-07T12:15:40;11.10;;;3.58;;
2546;SDS011;1283;47.982;7.834;2023-05-07T12:18:08;9.18;;;3.55;;
2546;SDS011;1283;47.982;7.834;2023-05-07T12:20:35;7.35;;;2.85;;
2546;SDS011;1283;47.982;7.834;2023-05-07T12:23:02;6.88;;;3.50;;
2546;SDS011;1283;47.982;7.834;2023-05-07T12:25:29;5.38;;;3.20;;
2546;SDS011;1283;47.982;7.834;2023-05-07T12:27:56;5.70;;;3.05;;
2546;SDS011;1283;47.982;7.834;2023-05-07T12:30:23;4.72;;;2.97;;
2546;SDS011;1283;47.982;7.834;2023-05-07T12:32:52;5.85;;;2.60;;
2546;SDS011;1283;47.982;7.834;2023-05-07T12:35:27;6.40;;;2.75;;
2546;SDS011;1283;47.982;7.834;2023-05-07T12:37:56;6.30;;;2.58;;
2546;SDS011;1283;47.982;7.834;2023-05-07T12:40:24;4.20;;;3.15;;
2546;SDS011;1283;47.982;7.834;2023-05-07T12:42:52;8.68;;;3.97;;
2546;SDS011;1283;47.982;7.834;2023-05-07T12:45:20;4.00;;;2.88;;
2546;SDS011;1283;47.982;7.834;2023-05-07T12:47:47;6.97;;;3.50;;
2546;SDS011;1283;47.982;7.834;2023-05-07T12:50:13;5.85;;;3.25;;
2546;SDS011;1283;47.982;7.834;2023-05-07T12:52:41;4.68;;;3.28;;
2546;SDS011;1283;47.982;7.834;2023-05-07T12:55:09;3.92;;;2.85;;
2546;SDS011;1283;47.982;7.834;2023-05-07T12:57:38;4.07;;;3.05;;
2546;SDS011;1283;47.982;7.834;2023-05-07T13:00:05;5.82;;;2.88;;
2546;SDS011;1283;47.982;7.834;2023-05-07T13:02:32;7.30;;;2.55;;
2546;SDS011;1283;47.982;7.834;2023-05-07T13:04:59;4.32;;;2.95;;
2546;SDS011;1283;47.982;7.834;2023-05-07T13:07:26;6.10;;;2.53;;
2546;SDS011;1283;47.982;7.834;2023-05-07T13:09:53;4.22;;;2.45;;
2546;SDS011;1283;47.982;7.834;2023-05-07T13:12:20;6.47;;;2.65;;
2546;SDS011;1283;47.982;7.834;2023-05-07T13:14:46;7.13;;;3.40;;
2546;SDS011;1283;47.982;7.834;2023-05-07T13:17:13;6.18;;;2.58;;
2546;SDS011;1283;47.982;7.834;2023-05-07T13:19:39;4.50;;;3.17;;
2546;SDS011;1283;47.982;7.834;2023-05-07T13:22:05;5.93;;;2.65;;
2546;SDS011;1283;47.982;7.834;2023-05-07T13:24:32;6.35;;;3.17;;
2546;SDS011;1283;47.982;7.834;2023-05-07T13:27:00;11.15;;;4.32;;
2546;SDS011;1283;47.982;7.834;2023-05-07T13:29:26;4.72;;;2.97;;
2546;SDS011;1283;47.982;7.834;2023-05-07T13:31:55;5.88;;;3.42;;
2546;SDS011;1283;47.982;7.834;2023-05-07T13:34:22;6.25;;;3.28;;
2546;SDS011;1283;47.982;7.834;2023-05-07T13:36:48;5.03;;;3.15;;
2546;SDS011;1283;47.982;7.834;2023-05-07T13:39:15;5.82;;;3.28;;
2546;SDS011;1283;47.982;7.834;2023-05-07T13:41:41;8.35;;;3.47;;
2546;SDS011;1283;47.982;7.834;2023-05-07T13:44:09;6.65;;;3.60;;
2546;SDS011;1283;47.982;7.834;2023-05-07T13:46:36;7.05;;;3.35;;
2546;SDS011;1283;47.982;7.834;2023-05-07T13:49:02;5.15;;;3.63;;
2546;SDS011;1283;47.982;7.834;2023-05-07T13:51:29;7.10;;;3.63;;
2546;SDS011;1283;47.982;7.834;2023-05-07T13:53:56;5.78;;;4.10;;
2546;SDS011;1283;47.982;7.834;2023-05-07T13:56:23;6.10;;;4.13;;
2546;SDS011;1283;47.982;7.834;2023-05-07T13:58:50;6.13;;;4.10;;
2546;SDS011;1283;47.982;7.834;2023-05-07T14:01:17;6.30;;;4.30;;
2546;SDS011;1283;47.982;7.834;2023-05-07T14:03:44;5.68;;;3.70;;
2546;SDS011;1283;47.982;7.834;2023-05-07T14:06:10;7.07;;;3.60;;
2546;SDS011;1283;47.982;7.834;2023-05-07T14:08:37;6.40;;;3.30;;
2546;SDS011;1283;47.982;7.834;2023-05-07T14:11:03;6.15;;;3.38;;
2546;SDS011;1283;47.982;7.834;2023-05-07T14:13:30;5.43;;;3.50;;
2546;SDS011;1283;47.982;7.834;2023-05-07T14:15:56;5.75;;;3.35;;
2546;SDS011;1283;47.982;7.834;2023-05-07T14:18:24;5.55;;;3.25;;
2546;SDS011;1283;47.982;7.834;2023-05-07T14:20:50;5.97;;;3.13;;
2546;SDS011;1283;47.982;7.834;2023-05-07T14:23:17;6.78;;;3.05;;
2546;SDS011;1283;47.982;7.834;2023-05-07T14:25:44;4.13;;;2.97;;
2546;SDS011;1283;47.982;7.834;2023-05-07T14:28:12;5.38;;;3.33;;
2546;SDS011;1283;47.982;7.834;2023-05-07T14:30:39;7.00;;;3.28;;
2546;SDS011;1283;47.982;7.834;2023-05-07T14:33:06;4.55;;;2.70;;
2546;SDS011;1283;47.982;7.834;2023-05-07T14:35:34;3.88;;;2.63;;
2546;SDS011;1283;47.982;7.834;2023-05-07T14:38:01;8.25;;;2.58;;
2546;SDS011;1283;47.982;7.834;2023-05-07T14:40:27;5.85;;;2.75;;
2546;SDS011;1283;47.982;7.834;2023-05-07T14:42:53;6.13;;;3.03;;
2546;SDS011;1283;47.982;7.834;2023-05-07T14:45:22;6.30;;;3.40;;
2546;SDS011;1283;47.982;7.834;2023-05-07T14:47:48;4.93;;;2.50;;
2546;SDS011;1283;47.982;7.834;2023-05-07T14:50:15;4.95;;;2.78;;
2546;SDS011;1283;47.982;7.834;2023-05-07T14:52:42;3.95;;;2.63;;
2546;SDS011;1283;47.982;7.834;2023-05-07T14:55:09;4.43;;;2.40;;
2546;SDS011;1283;47.982;7.834;2023-05-07T14:57:35;4.13;;;2.03;;
2546;SDS011;1283;47.982;7.834;2023-05-07T15:00:03;1.60;;;1.20;;
2546;SDS011;1283;47.982;7.834;2023-05-07T15:02:30;2.58;;;1.30;;
2546;SDS011;1283;47.982;7.834;2023-05-07T15:04:56;2.55;;;1.13;;
2546;SDS011;1283;47.982;7.834;2023-05-07T15:07:22;2.35;;;1.00;;
2546;SDS011;1283;47.982;7.834;2023-05-07T15:09:50;1.63;;;1.13;;
2546;SDS011;1283;47.982;7.834;2023-05-07T15:12:17;2.40;;;1.00;;
2546;SDS011;1283;47.982;7.834;2023-05-07T15:14:43;3.40;;;1.05;;
2546;SDS011;1283;47.982;7.834;2023-05-07T15:17:09;2.50;;;1.20;;
2546;SDS011;1283;47.982;7.834;2023-05-07T15:19:36;1.70;;;1.30;;
2546;SDS011;1283;47.982;7.834;2023-05-07T15:22:02;1.80;;;1.20;;
2546;SDS011;1283;47.982;7.834;2023-05-07T15:24:29;1.67;;;1.20;;
2546;SDS011;1283;47.982;7.834;2023-05-07T15:26:57;4.07;;;1.30;;
2546;SDS011;1283;47.982;7.834;2023-05-07T15:29:23;2.72;;;1.38;;
2546;SDS011;1283;47.982;7.834;2023-05-07T15:31:50;2.00;;;1.45;;
2546;SDS011;1283;47.982;7.834;2023-05-07T15:34:16;2.90;;;1.70;;
2546;SDS011;1283;47.982;7.834;2023-05-07T15:36:43;3.13;;;1.50;;